KBTL/BTL METAR and TAF weather

Enter ICAO airport designator
Station Type Date Time Source
KBTL METAR 2018/12/10 17:53 UTC NOAA

KBTL 101753Z 27007KT 10SM OVC019 01/M04 A3021 RMK AO2 SLP241 T00061039 10006 21033 58015


Station Type Date Time Source
KBTL Decoded METAR 2018/12/10 17:53 UTC NOAA

W.K.KELLOGG REGIONAL AIRPORT, MI, United States (KBTL) 42-18N 085-15W 290M
Dec 10, 2018 - 12:53 PM EST / 2018.12.10 1753 UTC
Wind: from the W (270 degrees) at 8 MPH (7 KT):0
Visibility: 10 mile(s):0
Sky conditions: overcast
Temperature: 33.1 F (0.6 C)
Windchill: 26 F (-3 C):1
Dew Point: 25.0 F (-3.9 C)
Relative Humidity: 71%
Pressure (altimeter): 30.21 in. Hg (1023 hPa)
Pressure tendency: 0.04 inches (1.5 hPa) lower than three hours ago
ob: KBTL 101753Z 27007KT 10SM OVC019 01/M04 A3021 RMK AO2 SLP241 T00061039 10006 21033 58015
cycle: 18

Station Type Date Time Source
KBTL TAF 2018/12/10 18:24 UTC NOAA

TAF KBTL 101721Z 1018/1118 21006KT P6SM OVC020
FM102100 22008KT P6SM SCT025
FM110300 23009KT P6SM SKC
FM110600 23011KT P6SM OVC025


Example: see airport list